sensor_id;sensor_type;location;lat;lon;timestamp;P1;durP1;ratioP1;P2;durP2;ratioP2
69417;SDS011;56610;48.872;2.400;2023-02-28T00:00:21;5.72;;;3.20;;
69417;SDS011;56610;48.872;2.400;2023-02-28T00:02:50;6.63;;;3.45;;
69417;SDS011;56610;48.872;2.400;2023-02-28T00:05:17;4.25;;;3.40;;
69417;SDS011;56610;48.872;2.400;2023-02-28T00:07:45;6.72;;;3.80;;
69417;SDS011;56610;48.872;2.400;2023-02-28T00:10:12;4.10;;;3.47;;
69417;SDS011;56610;48.872;2.400;2023-02-28T00:12:40;3.85;;;3.22;;
69417;SDS011;56610;48.872;2.400;2023-02-28T00:15:09;5.70;;;3.75;;
69417;SDS011;56610;48.872;2.400;2023-02-28T00:17:36;6.45;;;3.80;;
69417;SDS011;56610;48.872;2.400;2023-02-28T00:20:04;4.75;;;3.63;;
69417;SDS011;56610;48.872;2.400;2023-02-28T00:22:37;6.07;;;3.90;;
69417;SDS011;56610;48.872;2.400;2023-02-28T00:25:05;6.15;;;3.95;;
69417;SDS011;56610;48.872;2.400;2023-02-28T00:27:32;6.73;;;3.80;;
69417;SDS011;56610;48.872;2.400;2023-02-28T00:29:58;4.78;;;3.58;;
69417;SDS011;56610;48.872;2.400;2023-02-28T00:32:23;5.18;;;3.55;;
69417;SDS011;56610;48.872;2.400;2023-02-28T00:34:50;5.88;;;3.60;;
69417;SDS011;56610;48.872;2.400;2023-02-28T00:37:15;6.32;;;3.55;;
69417;SDS011;56610;48.872;2.400;2023-02-28T00:39:41;3.92;;;3.05;;
69417;SDS011;56610;48.872;2.400;2023-02-28T00:42:07;5.60;;;3.45;;
69417;SDS011;56610;48.872;2.400;2023-02-28T00:44:32;5.13;;;3.88;;
69417;SDS011;56610;48.872;2.400;2023-02-28T00:46:59;4.00;;;3.20;;
69417;SDS011;56610;48.872;2.400;2023-02-28T00:49:25;4.32;;;3.42;;
69417;SDS011;56610;48.872;2.400;2023-02-28T00:51:52;3.53;;;3.22;;
69417;SDS011;56610;48.872;2.400;2023-02-28T00:54:19;5.28;;;3.65;;
69417;SDS011;56610;48.872;2.400;2023-02-28T00:56:44;4.95;;;3.30;;
69417;SDS011;56610;48.872;2.400;2023-02-28T00:59:11;4.47;;;3.60;;
69417;SDS011;56610;48.872;2.400;2023-02-28T01:01:37;5.85;;;3.67;;
69417;SDS011;56610;48.872;2.400;2023-02-28T01:04:03;5.45;;;3.55;;
69417;SDS011;56610;48.872;2.400;2023-02-28T01:06:29;3.40;;;3.10;;
69417;SDS011;56610;48.872;2.400;2023-02-28T01:08:55;4.10;;;3.17;;
69417;SDS011;56610;48.872;2.400;2023-02-28T01:11:21;4.25;;;3.40;;
69417;SDS011;56610;48.872;2.400;2023-02-28T01:13:46;7.07;;;3.55;;
69417;SDS011;56610;48.872;2.400;2023-02-28T01:16:13;3.97;;;3.10;;
69417;SDS011;56610;48.872;2.400;2023-02-28T01:18:42;5.35;;;3.38;;
69417;SDS011;56610;48.872;2.400;2023-02-28T01:21:10;4.93;;;3.20;;
69417;SDS011;56610;48.872;2.400;2023-02-28T01:23:39;4.68;;;3.38;;
69417;SDS011;56610;48.872;2.400;2023-02-28T01:26:06;4.43;;;3.10;;
69417;SDS011;56610;48.872;2.400;2023-02-28T01:28:39;3.17;;;2.88;;
69417;SDS011;56610;48.872;2.400;2023-02-28T01:31:05;4.00;;;3.58;;
69417;SDS011;56610;48.872;2.400;2023-02-28T01:33:31;4.63;;;3.00;;
69417;SDS011;56610;48.872;2.400;2023-02-28T01:35:58;4.13;;;3.10;;
69417;SDS011;56610;48.872;2.400;2023-02-28T01:38:24;4.30;;;3.17;;
69417;SDS011;56610;48.872;2.400;2023-02-28T01:40:50;3.97;;;3.10;;
69417;SDS011;56610;48.872;2.400;2023-02-28T01:43:22;3.53;;;3.17;;
69417;SDS011;56610;48.872;2.400;2023-02-28T01:45:50;4.47;;;3.30;;
69417;SDS011;56610;48.872;2.400;2023-02-28T01:48:17;3.60;;;2.72;;
69417;SDS011;56610;48.872;2.400;2023-02-28T01:50:44;4.57;;;3.33;;
69417;SDS011;56610;48.872;2.400;2023-02-28T01:53:13;3.38;;;3.08;;
69417;SDS011;56610;48.872;2.400;2023-02-28T01:55:47;4.22;;;3.40;;
69417;SDS011;56610;48.872;2.400;2023-02-28T01:58:16;5.13;;;3.55;;
69417;SDS011;56610;48.872;2.400;2023-02-28T02:00:42;3.25;;;2.97;;
69417;SDS011;56610;48.872;2.400;2023-02-28T02:03:09;6.40;;;3.60;;
69417;SDS011;56610;48.872;2.400;2023-02-28T02:05:38;4.13;;;2.88;;
69417;SDS011;56610;48.872;2.400;2023-02-28T02:08:06;5.35;;;3.08;;
69417;SDS011;56610;48.872;2.400;2023-02-28T02:10:39;4.60;;;3.60;;
69417;SDS011;56610;48.872;2.400;2023-02-28T02:13:21;5.65;;;3.55;;
69417;SDS011;56610;48.872;2.400;2023-02-28T02:18:54;4.13;;;3.38;;
69417;SDS011;56610;48.872;2.400;2023-02-28T02:21:53;5.38;;;3.22;;
69417;SDS011;56610;48.872;2.400;2023-02-28T02:27:17;3.42;;;2.90;;
69417;SDS011;56610;48.872;2.400;2023-02-28T02:33:02;5.13;;;3.50;;
69417;SDS011;56610;48.872;2.400;2023-02-28T02:43:46;3.53;;;2.90;;
69417;SDS011;56610;48.872;2.400;2023-02-28T02:48:56;6.85;;;3.13;;
69417;SDS011;56610;48.872;2.400;2023-02-28T02:51:24;3.30;;;3.00;;
69417;SDS011;56610;48.872;2.400;2023-02-28T02:54:08;3.33;;;3.03;;
69417;SDS011;56610;48.872;2.400;2023-02-28T02:59:07;5.85;;;3.35;;
69417;SDS011;56610;48.872;2.400;2023-02-28T03:01:36;7.60;;;2.85;;
69417;SDS011;56610;48.872;2.400;2023-02-28T03:04:22;4.90;;;2.92;;
69417;SDS011;56610;48.872;2.400;2023-02-28T03:06:50;3.92;;;2.92;;
69417;SDS011;56610;48.872;2.400;2023-02-28T03:09:20;4.70;;;3.17;;
69417;SDS011;56610;48.872;2.400;2023-02-28T03:11:46;3.20;;;2.90;;
69417;SDS011;56610;48.872;2.400;2023-02-28T03:27:40;4.45;;;2.85;;
69417;SDS011;56610;48.872;2.400;2023-02-28T03:30:15;3.58;;;2.55;;
69417;SDS011;56610;48.872;2.400;2023-02-28T03:32:52;3.63;;;2.38;;
69417;SDS011;56610;48.872;2.400;2023-02-28T03:35:34;5.13;;;2.88;;
69417;SDS011;56610;48.872;2.400;2023-02-28T03:38:08;4.15;;;2.63;;
69417;SDS011;56610;48.872;2.400;2023-02-28T03:40:44;2.75;;;2.50;;
69417;SDS011;56610;48.872;2.400;2023-02-28T03:43:14;3.55;;;2.55;;
69417;SDS011;56610;48.872;2.400;2023-02-28T03:45:46;3.22;;;2.53;;
69417;SDS011;56610;48.872;2.400;2023-02-28T03:48:16;3.70;;;2.78;;
69417;SDS011;56610;48.872;2.400;2023-02-28T03:50:47;2.88;;;2.40;;
69417;SDS011;56610;48.872;2.400;2023-02-28T03:55:47;3.47;;;2.67;;
69417;SDS011;56610;48.872;2.400;2023-02-28T03:58:24;4.03;;;3.00;;
69417;SDS011;56610;48.872;2.400;2023-02-28T04:01:04;3.72;;;3.22;;
69417;SDS011;56610;48.872;2.400;2023-02-28T04:03:35;2.88;;;2.55;;
69417;SDS011;56610;48.872;2.400;2023-02-28T04:06:01;4.18;;;2.85;;
69417;SDS011;56610;48.872;2.400;2023-02-28T04:08:28;3.03;;;2.65;;
69417;SDS011;56610;48.872;2.400;2023-02-28T04:11:00;3.28;;;2.72;;
69417;SDS011;56610;48.872;2.400;2023-02-28T04:13:30;2.58;;;2.38;;
69417;SDS011;56610;48.872;2.400;2023-02-28T04:15:56;3.45;;;2.53;;
69417;SDS011;56610;48.872;2.400;2023-02-28T04:18:22;3.95;;;2.30;;
69417;SDS011;56610;48.872;2.400;2023-02-28T04:20:47;2.60;;;2.40;;
69417;SDS011;56610;48.872;2.400;2023-02-28T04:23:13;4.43;;;2.80;;
69417;SDS011;56610;48.872;2.400;2023-02-28T04:25:39;3.65;;;2.35;;
69417;SDS011;56610;48.872;2.400;2023-02-28T04:28:05;3.25;;;2.50;;
69417;SDS011;56610;48.872;2.400;2023-02-28T04:30:31;3.00;;;2.30;;
69417;SDS011;56610;48.872;2.400;2023-02-28T04:32:57;4.18;;;2.67;;
69417;SDS011;56610;48.872;2.400;2023-02-28T04:35:26;3.97;;;2.78;;
69417;SDS011;56610;48.872;2.400;2023-02-28T04:37:51;3.17;;;2.70;;
69417;SDS011;56610;48.872;2.400;2023-02-28T04:40:17;2.63;;;2.42;;
69417;SDS011;56610;48.872;2.400;2023-02-28T04:42:42;3.05;;;2.47;;
69417;SDS011;56610;48.872;2.400;2023-02-28T04:45:08;3.25;;;2.60;;
69417;SDS011;56610;48.872;2.400;2023-02-28T04:47:35;4.85;;;3.15;;
69417;SDS011;56610;48.872;2.400;2023-02-28T04:50:01;3.20;;;2.90;;
69417;SDS011;56610;48.872;2.400;2023-02-28T04:52:29;3.38;;;3.05;;
69417;SDS011;56610;48.872;2.400;2023-02-28T04:54:55;4.43;;;2.53;;
69417;SDS011;56610;48.872;2.400;2023-02-28T04:57:21;3.92;;;2.70;;
69417;SDS011;56610;48.872;2.400;2023-02-28T04:59:46;4.07;;;3.22;;
69417;SDS011;56610;48.872;2.400;2023-02-28T05:02:12;4.18;;;3.10;;
69417;SDS011;56610;48.872;2.400;2023-02-28T05:04:37;4.80;;;3.05;;
69417;SDS011;56610;48.872;2.400;2023-02-28T05:07:03;3.05;;;2.72;;
69417;SDS011;56610;48.872;2.400;2023-02-28T05:09:29;3.90;;;2.78;;
69417;SDS011;56610;48.872;2.400;2023-02-28T05:11:55;3.17;;;2.80;;
69417;SDS011;56610;48.872;2.400;2023-02-28T05:14:21;3.35;;;2.97;;
69417;SDS011;56610;48.872;2.400;2023-02-28T05:16:46;4.20;;;3.47;;
69417;SDS011;56610;48.872;2.400;2023-02-28T05:19:12;3.38;;;2.88;;
69417;SDS011;56610;48.872;2.400;2023-02-28T05:21:41;3.72;;;3.08;;
69417;SDS011;56610;48.872;2.400;2023-02-28T05:24:15;3.83;;;3.00;;
69417;SDS011;56610;48.872;2.400;2023-02-28T05:26:47;3.42;;;2.95;;
69417;SDS011;56610;48.872;2.400;2023-02-28T05:29:14;5.60;;;3.17;;
69417;SDS011;56610;48.872;2.400;2023-02-28T05:31:39;4.78;;;3.20;;
69417;SDS011;56610;48.872;2.400;2023-02-28T05:34:05;4.95;;;3.45;;
69417;SDS011;56610;48.872;2.400;2023-02-28T05:36:31;4.30;;;3.08;;
69417;SDS011;56610;48.872;2.400;2023-02-28T05:38:56;4.15;;;3.65;;
69417;SDS011;56610;48.872;2.400;2023-02-28T05:41:22;4.38;;;3.67;;
69417;SDS011;56610;48.872;2.400;2023-02-28T05:43:48;4.70;;;3.88;;
69417;SDS011;56610;48.872;2.400;2023-02-28T05:46:14;3.97;;;3.13;;
69417;SDS011;56610;48.872;2.400;2023-02-28T05:48:40;3.80;;;3.50;;
69417;SDS011;56610;48.872;2.400;2023-02-28T05:51:07;5.55;;;4.15;;
69417;SDS011;56610;48.872;2.400;2023-02-28T05:53:34;5.18;;;3.90;;
69417;SDS011;56610;48.872;2.400;2023-02-28T05:56:05;4.82;;;4.03;;
69417;SDS011;56610;48.872;2.400;2023-02-28T05:58:30;6.32;;;4.15;;
69417;SDS011;56610;48.872;2.400;2023-02-28T06:00:57;4.95;;;4.43;;
69417;SDS011;56610;48.872;2.400;2023-02-28T06:03:26;5.10;;;4.57;;
69417;SDS011;56610;48.872;2.400;2023-02-28T06:05:52;6.68;;;4.97;;
69417;SDS011;56610;48.872;2.400;2023-02-28T06:08:18;5.28;;;4.78;;
69417;SDS011;56610;48.872;2.400;2023-02-28T06:10:44;5.68;;;4.85;;
69417;SDS011;56610;48.872;2.400;2023-02-28T06:13:10;7.50;;;5.03;;
69417;SDS011;56610;48.872;2.400;2023-02-28T06:15:37;6.47;;;5.60;;
69417;SDS011;56610;48.872;2.400;2023-02-28T06:18:03;7.60;;;5.78;;
69417;SDS011;56610;48.872;2.400;2023-02-28T06:20:29;9.48;;;5.50;;
69417;SDS011;56610;48.872;2.400;2023-02-28T06:22:56;8.88;;;5.50;;
69417;SDS011;56610;48.872;2.400;2023-02-28T06:25:23;8.35;;;5.72;;
69417;SDS011;56610;48.872;2.400;2023-02-28T06:27:49;6.47;;;5.78;;
69417;SDS011;56610;48.872;2.400;2023-02-28T06:30:15;9.10;;;6.38;;
69417;SDS011;56610;48.872;2.400;2023-02-28T06:32:40;8.43;;;6.50;;
69417;SDS011;56610;48.872;2.400;2023-02-28T06:35:06;9.00;;;6.38;;
69417;SDS011;56610;48.872;2.400;2023-02-28T06:37:32;7.75;;;6.90;;
69417;SDS011;56610;48.872;2.400;2023-02-28T06:39:59;7.30;;;6.60;;
69417;SDS011;56610;48.872;2.400;2023-02-28T06:42:25;7.13;;;6.43;;
69417;SDS011;56610;48.872;2.400;2023-02-28T06:44:53;9.60;;;6.65;;
69417;SDS011;56610;48.872;2.400;2023-02-28T06:47:22;9.05;;;7.13;;
69417;SDS011;56610;48.872;2.400;2023-02-28T06:49:48;7.80;;;7.00;;
69417;SDS011;56610;48.872;2.400;2023-02-28T06:52:14;8.68;;;7.57;;
69417;SDS011;56610;48.872;2.400;2023-02-28T06:54:40;10.52;;;8.00;;
69417;SDS011;56610;48.872;2.400;2023-02-28T06:57:06;15.77;;;7.65;;
69417;SDS011;56610;48.872;2.400;2023-02-28T06:59:31;9.30;;;7.63;;
69417;SDS011;56610;48.872;2.400;2023-02-28T07:01:57;9.02;;;8.10;;
69417;SDS011;56610;48.872;2.400;2023-02-28T07:04:23;9.45;;;8.25;;
69417;SDS011;56610;48.872;2.400;2023-02-28T07:06:48;10.07;;;7.95;;
69417;SDS011;56610;48.872;2.400;2023-02-28T07:09:14;11.18;;;8.55;;
69417;SDS011;56610;48.872;2.400;2023-02-28T07:11:43;11.05;;;8.75;;
69417;SDS011;56610;48.872;2.400;2023-02-28T07:14:09;9.90;;;8.77;;
69417;SDS011;56610;48.872;2.400;2023-02-28T07:16:34;10.20;;;8.40;;
69417;SDS011;56610;48.872;2.400;2023-02-28T07:19:00;10.15;;;8.73;;
69417;SDS011;56610;48.872;2.400;2023-02-28T07:21:26;9.95;;;8.98;;
69417;SDS011;56610;48.872;2.400;2023-02-28T07:23:52;11.38;;;9.25;;
69417;SDS011;56610;48.872;2.400;2023-02-28T07:26:18;10.23;;;8.57;;
69417;SDS011;56610;48.872;2.400;2023-02-28T07:28:45;12.63;;;9.23;;
69417;SDS011;56610;48.872;2.400;2023-02-28T07:31:12;9.70;;;8.63;;
69417;SDS011;56610;48.872;2.400;2023-02-28T07:33:39;10.18;;;9.18;;
69417;SDS011;56610;48.872;2.400;2023-02-28T07:38:50;10.68;;;9.27;;
69417;SDS011;56610;48.872;2.400;2023-02-28T07:41:17;10.73;;;9.20;;
69417;SDS011;56610;48.872;2.400;2023-02-28T07:46:11;9.75;;;8.82;;
69417;SDS011;56610;48.872;2.400;2023-02-28T07:48:40;9.60;;;8.60;;
69417;SDS011;56610;48.872;2.400;2023-02-28T07:51:06;9.65;;;8.70;;
69417;SDS011;56610;48.872;2.400;2023-02-28T07:53:32;12.55;;;9.57;;
69417;SDS011;56610;48.872;2.400;2023-02-28T07:55:58;10.65;;;9.55;;
69417;SDS011;56610;48.872;2.400;2023-02-28T07:58:26;9.85;;;8.85;;
69417;SDS011;56610;48.872;2.400;2023-02-28T08:00:52;9.55;;;8.57;;
69417;SDS011;56610;48.872;2.400;2023-02-28T08:03:18;13.07;;;9.73;;
69417;SDS011;56610;48.872;2.400;2023-02-28T08:05:45;12.80;;;9.73;;
69417;SDS011;56610;48.872;2.400;2023-02-28T08:08:11;9.98;;;8.77;;
69417;SDS011;56610;48.872;2.400;2023-02-28T08:10:36;10.60;;;9.50;;
69417;SDS011;56610;48.872;2.400;2023-02-28T08:13:02;11.40;;;8.73;;
69417;SDS011;56610;48.872;2.400;2023-02-28T08:15:28;11.00;;;9.10;;
69417;SDS011;56610;48.872;2.400;2023-02-28T08:17:54;9.88;;;8.88;;
69417;SDS011;56610;48.872;2.400;2023-02-28T08:20:21;10.18;;;8.43;;
69417;SDS011;56610;48.872;2.400;2023-02-28T08:22:47;12.43;;;9.57;;
69417;SDS011;56610;48.872;2.400;2023-02-28T08:25:13;10.60;;;8.90;;
69417;SDS011;56610;48.872;2.400;2023-02-28T08:27:39;10.25;;;8.80;;
69417;SDS011;56610;48.872;2.400;2023-02-28T08:30:05;9.30;;;7.97;;
69417;SDS011;56610;48.872;2.400;2023-02-28T08:32:31;10.18;;;9.00;;
69417;SDS011;56610;48.872;2.400;2023-02-28T08:34:58;9.68;;;8.68;;
69417;SDS011;56610;48.872;2.400;2023-02-28T08:37:24;11.63;;;9.38;;
69417;SDS011;56610;48.872;2.400;2023-02-28T08:39:50;9.18;;;8.27;;
69417;SDS011;56610;48.872;2.400;2023-02-28T08:42:16;9.52;;;8.15;;
69417;SDS011;56610;48.872;2.400;2023-02-28T08:44:41;9.90;;;8.45;;
69417;SDS011;56610;48.872;2.400;2023-02-28T08:47:07;9.55;;;8.65;;
69417;SDS011;56610;48.872;2.400;2023-02-28T08:49:33;11.20;;;8.57;;
69417;SDS011;56610;48.872;2.400;2023-02-28T08:51:58;8.50;;;7.70;;
69417;SDS011;56610;48.872;2.400;2023-02-28T08:54:24;8.98;;;8.07;;
69417;SDS011;56610;48.872;2.400;2023-02-28T08:56:50;8.52;;;7.70;;
69417;SDS011;56610;48.872;2.400;2023-02-28T08:59:15;10.52;;;8.82;;
69417;SDS011;56610;48.872;2.400;2023-02-28T09:01:41;8.30;;;7.50;;
69417;SDS011;56610;48.872;2.400;2023-02-28T09:04:08;11.15;;;8.02;;
69417;SDS011;56610;48.872;2.400;2023-02-28T09:06:35;8.20;;;7.43;;
69417;SDS011;56610;48.872;2.400;2023-02-28T09:09:01;11.57;;;7.35;;
69417;SDS011;56610;48.872;2.400;2023-02-28T09:11:29;11.23;;;8.35;;
69417;SDS011;56610;48.872;2.400;2023-02-28T09:13:54;9.20;;;7.80;;
69417;SDS011;56610;48.872;2.400;2023-02-28T09:16:20;9.15;;;7.90;;
69417;SDS011;56610;48.872;2.400;2023-02-28T09:18:46;10.68;;;8.60;;
69417;SDS011;56610;48.872;2.400;2023-02-28T09:21:14;10.13;;;7.70;;
69417;SDS011;56610;48.872;2.400;2023-02-28T09:26:07;7.53;;;6.72;;
69417;SDS011;56610;48.872;2.400;2023-02-28T09:28:37;8.38;;;7.47;;
69417;SDS011;56610;48.872;2.400;2023-02-28T09:31:03;7.90;;;7.20;;
69417;SDS011;56610;48.872;2.400;2023-02-28T09:33:29;8.90;;;7.03;;
69417;SDS011;56610;48.872;2.400;2023-02-28T09:35:59;7.28;;;6.57;;
69417;SDS011;56610;48.872;2.400;2023-02-28T09:38:25;7.53;;;6.32;;
69417;SDS011;56610;48.872;2.400;2023-02-28T09:40:53;9.45;;;7.00;;
69417;SDS011;56610;48.872;2.400;2023-02-28T09:43:22;10.05;;;7.18;;
69417;SDS011;56610;48.872;2.400;2023-02-28T09:45:52;6.65;;;5.95;;
69417;SDS011;56610;48.872;2.400;2023-02-28T09:48:39;7.97;;;5.75;;
69417;SDS011;56610;48.872;2.400;2023-02-28T09:51:14;7.25;;;6.20;;
69417;SDS011;56610;48.872;2.400;2023-02-28T09:53:42;7.20;;;5.95;;
69417;SDS011;56610;48.872;2.400;2023-02-28T09:56:09;7.90;;;6.32;;
69417;SDS011;56610;48.872;2.400;2023-02-28T09:58:45;6.97;;;6.20;;
69417;SDS011;56610;48.872;2.400;2023-02-28T10:07:04;7.80;;;5.47;;
69417;SDS011;56610;48.872;2.400;2023-02-28T10:09:43;5.43;;;4.93;;
69417;SDS011;56610;48.872;2.400;2023-02-28T10:12:14;6.93;;;6.15;;
69417;SDS011;56610;48.872;2.400;2023-02-28T10:14:42;7.20;;;5.75;;
69417;SDS011;56610;48.872;2.400;2023-02-28T10:17:16;6.50;;;5.13;;
69417;SDS011;56610;48.872;2.400;2023-02-28T10:25:16;5.95;;;5.00;;
69417;SDS011;56610;48.872;2.400;2023-02-28T10:27:46;6.03;;;5.20;;
69417;SDS011;56610;48.872;2.400;2023-02-28T10:30:12;5.30;;;4.80;;
69417;SDS011;56610;48.872;2.400;2023-02-28T10:32:43;7.68;;;5.20;;
69417;SDS011;56610;48.872;2.400;2023-02-28T10:37:59;6.05;;;4.85;;
69417;SDS011;56610;48.872;2.400;2023-02-28T10:40:35;5.88;;;4.70;;
69417;SDS011;56610;48.872;2.400;2023-02-28T10:45:30;6.28;;;5.65;;
69417;SDS011;56610;48.872;2.400;2023-02-28T10:48:03;4.55;;;4.10;;
69417;SDS011;56610;48.872;2.400;2023-02-28T10:55:56;4.78;;;4.22;;
69417;SDS011;56610;48.872;2.400;2023-02-28T10:58:24;4.00;;;3.67;;
69417;SDS011;56610;48.872;2.400;2023-02-28T11:00:51;7.50;;;4.00;;
69417;SDS011;56610;48.872;2.400;2023-02-28T11:05:53;3.83;;;3.40;;
69417;SDS011;56610;48.872;2.400;2023-02-28T11:08:20;4.50;;;3.75;;
69417;SDS011;56610;48.872;2.400;2023-02-28T11:10:46;4.57;;;3.50;;
69417;SDS011;56610;48.872;2.400;2023-02-28T11:13:19;4.10;;;3.40;;
69417;SDS011;56610;48.872;2.400;2023-02-28T11:15:51;3.25;;;3.03;;
69417;SDS011;56610;48.872;2.400;2023-02-28T11:18:25;6.47;;;3.70;;
69417;SDS011;56610;48.872;2.400;2023-02-28T11:20:55;4.93;;;3.75;;
69417;SDS011;56610;48.872;2.400;2023-02-28T11:25:51;4.05;;;3.65;;
69417;SDS011;56610;48.872;2.400;2023-02-28T11:28:32;4.15;;;3.70;;
69417;SDS011;56610;48.872;2.400;2023-02-28T11:33:51;3.28;;;2.97;;
69417;SDS011;56610;48.872;2.400;2023-02-28T11:38:46;3.95;;;3.60;;
69417;SDS011;56610;48.872;2.400;2023-02-28T12:28:04;3.38;;;2.67;;
69417;SDS011;56610;48.872;2.400;2023-02-28T12:30:36;3.55;;;2.65;;
69417;SDS011;56610;48.872;2.400;2023-02-28T12:33:14;3.80;;;2.70;;
69417;SDS011;56610;48.872;2.400;2023-02-28T12:35:58;2.70;;;2.50;;
69417;SDS011;56610;48.872;2.400;2023-02-28T12:38:28;3.35;;;2.83;;
69417;SDS011;56610;48.872;2.400;2023-02-28T12:41:03;2.78;;;2.58;;
69417;SDS011;56610;48.872;2.400;2023-02-28T12:43:37;3.92;;;3.30;;
69417;SDS011;56610;48.872;2.400;2023-02-28T12:46:09;4.13;;;2.85;;
69417;SDS011;56610;48.872;2.400;2023-02-28T12:49:06;4.47;;;2.80;;
69417;SDS011;56610;48.872;2.400;2023-02-28T12:51:36;2.88;;;2.60;;
69417;SDS011;56610;48.872;2.400;2023-02-28T12:56:57;4.05;;;3.10;;
69417;SDS011;56610;48.872;2.400;2023-02-28T12:59:51;3.80;;;3.08;;
69417;SDS011;56610;48.872;2.400;2023-02-28T13:05:05;3.00;;;2.70;;
69417;SDS011;56610;48.872;2.400;2023-02-28T13:10:46;3.60;;;2.28;;
69417;SDS011;56610;48.872;2.400;2023-02-28T13:13:20;3.80;;;2.50;;
69417;SDS011;56610;48.872;2.400;2023-02-28T13:15:58;2.88;;;2.20;;
69417;SDS011;56610;48.872;2.400;2023-02-28T13:18:28;2.22;;;2.13;;
69417;SDS011;56610;48.872;2.400;2023-02-28T13:20:55;2.88;;;2.67;;
69417;SDS011;56610;48.872;2.400;2023-02-28T13:23:37;5.13;;;2.92;;
69417;SDS011;56610;48.872;2.400;2023-02-28T13:26:09;4.18;;;2.60;;
69417;SDS011;56610;48.872;2.400;2023-02-28T13:31:22;2.80;;;2.47;;
69417;SDS011;56610;48.872;2.400;2023-02-28T13:39:03;2.90;;;2.47;;
69417;SDS011;56610;48.872;2.400;2023-02-28T13:52:46;2.55;;;2.35;;
69417;SDS011;56610;48.872;2.400;2023-02-28T13:57:58;4.15;;;1.98;;
69417;SDS011;56610;48.872;2.400;2023-02-28T14:05:37;3.28;;;1.95;;
69417;SDS011;56610;48.872;2.400;2023-02-28T14:08:24;2.30;;;2.00;;
69417;SDS011;56610;48.872;2.400;2023-02-28T14:11:02;2.25;;;1.98;;
69417;SDS011;56610;48.872;2.400;2023-02-28T14:13:41;2.72;;;1.90;;
69417;SDS011;56610;48.872;2.400;2023-02-28T14:16:54;2.08;;;1.80;;
69417;SDS011;56610;48.872;2.400;2023-02-28T14:19:17;2.03;;;1.80;;
69417;SDS011;56610;48.872;2.400;2023-02-28T14:25:08;2.30;;;2.10;;
69417;SDS011;56610;48.872;2.400;2023-02-28T14:27:47;2.30;;;2.00;;
69417;SDS011;56610;48.872;2.400;2023-02-28T14:30:19;1.92;;;1.83;;
69417;SDS011;56610;48.872;2.400;2023-02-28T14:36:04;2.30;;;2.10;;
69417;SDS011;56610;48.872;2.400;2023-02-28T14:38:45;3.75;;;2.35;;
69417;SDS011;56610;48.872;2.400;2023-02-28T14:41:15;2.10;;;2.00;;
69417;SDS011;56610;48.872;2.400;2023-02-28T14:43:51;2.50;;;2.30;;
69417;SDS011;56610;48.872;2.400;2023-02-28T14:46:22;2.85;;;2.45;;
69417;SDS011;56610;48.872;2.400;2023-02-28T14:48:52;3.90;;;2.20;;
69417;SDS011;56610;48.872;2.400;2023-02-28T14:51:19;3.50;;;2.47;;
69417;SDS011;56610;48.872;2.400;2023-02-28T14:53:48;3.65;;;2.28;;
69417;SDS011;56610;48.872;2.400;2023-02-28T14:56:20;3.67;;;2.50;;
69417;SDS011;56610;48.872;2.400;2023-02-28T14:58:53;2.40;;;2.20;;
69417;SDS011;56610;48.872;2.400;2023-02-28T15:01:21;3.40;;;2.08;;
69417;SDS011;56610;48.872;2.400;2023-02-28T15:03:48;2.88;;;2.20;;
69417;SDS011;56610;48.872;2.400;2023-02-28T15:06:23;2.50;;;2.30;;
69417;SDS011;56610;48.872;2.400;2023-02-28T15:09:05;3.67;;;2.30;;
69417;SDS011;56610;48.872;2.400;2023-02-28T15:11:33;3.53;;;1.90;;
69417;SDS011;56610;48.872;2.400;2023-02-28T15:13:58;2.55;;;2.35;;
69417;SDS011;56610;48.872;2.400;2023-02-28T15:16:26;3.67;;;2.38;;
69417;SDS011;56610;48.872;2.400;2023-02-28T15:23:59;2.20;;;2.00;;
69417;SDS011;56610;48.872;2.400;2023-02-28T15:26:34;1.92;;;1.83;;
69417;SDS011;56610;48.872;2.400;2023-02-28T15:29:10;2.13;;;1.92;;
69417;SDS011;56610;48.872;2.400;2023-02-28T15:34:34;2.28;;;2.08;;
69417;SDS011;56610;48.872;2.400;2023-02-28T15:37:01;2.17;;;2.00;;
69417;SDS011;56610;48.872;2.400;2023-02-28T15:39:49;2.58;;;2.38;;
69417;SDS011;56610;48.872;2.400;2023-02-28T15:42:19;2.35;;;2.20;;
69417;SDS011;56610;48.872;2.400;2023-02-28T15:44:49;2.33;;;2.13;;
69417;SDS011;56610;48.872;2.400;2023-02-28T15:47:21;2.80;;;2.30;;
69417;SDS011;56610;48.872;2.400;2023-02-28T15:50:09;2.53;;;2.33;;
69417;SDS011;56610;48.872;2.400;2023-02-28T15:55:07;2.85;;;2.65;;
69417;SDS011;56610;48.872;2.400;2023-02-28T15:57:38;2.65;;;2.10;;
69417;SDS011;56610;48.872;2.400;2023-02-28T16:00:06;2.38;;;2.17;;
69417;SDS011;56610;48.872;2.400;2023-02-28T16:02:38;2.22;;;2.03;;
69417;SDS011;56610;48.872;2.400;2023-02-28T16:07:33;2.83;;;2.40;;
69417;SDS011;56610;48.872;2.400;2023-02-28T16:10:04;2.30;;;2.10;;
69417;SDS011;56610;48.872;2.400;2023-02-28T16:12:31;2.50;;;2.30;;
69417;SDS011;56610;48.872;2.400;2023-02-28T16:17:29;2.70;;;2.13;;
69417;SDS011;56610;48.872;2.400;2023-02-28T16:19:57;2.58;;;2.22;;
69417;SDS011;56610;48.872;2.400;2023-02-28T16:22:23;2.70;;;2.08;;
69417;SDS011;56610;48.872;2.400;2023-02-28T16:24:49;2.95;;;2.28;;
69417;SDS011;56610;48.872;2.400;2023-02-28T16:27:31;3.08;;;2.50;;
69417;SDS011;56610;48.872;2.400;2023-02-28T16:30:01;2.50;;;2.00;;
69417;SDS011;56610;48.872;2.400;2023-02-28T16:32:34;2.78;;;2.10;;
69417;SDS011;56610;48.872;2.400;2023-02-28T16:35:01;2.78;;;2.30;;
69417;SDS011;56610;48.872;2.400;2023-02-28T16:37:27;2.53;;;2.22;;
69417;SDS011;56610;48.872;2.400;2023-02-28T16:39:53;2.53;;;2.10;;
69417;SDS011;56610;48.872;2.400;2023-02-28T16:42:21;3.22;;;2.30;;
69417;SDS011;56610;48.872;2.400;2023-02-28T16:44:53;2.90;;;2.70;;
69417;SDS011;56610;48.872;2.400;2023-02-28T16:47:20;2.47;;;2.10;;
69417;SDS011;56610;48.872;2.400;2023-02-28T16:49:46;2.72;;;2.28;;
69417;SDS011;56610;48.872;2.400;2023-02-28T16:52:13;4.50;;;2.33;;
69417;SDS011;56610;48.872;2.400;2023-02-28T16:54:39;2.33;;;2.10;;
69417;SDS011;56610;48.872;2.400;2023-02-28T16:57:06;2.40;;;2.10;;
69417;SDS011;56610;48.872;2.400;2023-02-28T16:59:41;2.25;;;2.05;;
69417;SDS011;56610;48.872;2.400;2023-02-28T17:02:11;2.85;;;1.88;;
69417;SDS011;56610;48.872;2.400;2023-02-28T17:04:39;3.03;;;2.40;;
69417;SDS011;56610;48.872;2.400;2023-02-28T17:07:04;3.75;;;2.30;;
69417;SDS011;56610;48.872;2.400;2023-02-28T17:09:30;2.58;;;2.28;;
69417;SDS011;56610;48.872;2.400;2023-02-28T17:11:55;2.20;;;2.00;;
69417;SDS011;56610;48.872;2.400;2023-02-28T17:14:21;2.97;;;2.20;;
69417;SDS011;56610;48.872;2.400;2023-02-28T17:16:48;5.05;;;2.63;;
69417;SDS011;56610;48.872;2.400;2023-02-28T17:19:14;2.60;;;2.40;;
69417;SDS011;56610;48.872;2.400;2023-02-28T17:21:41;2.55;;;2.35;;
69417;SDS011;56610;48.872;2.400;2023-02-28T17:24:08;3.10;;;2.80;;
69417;SDS011;56610;48.872;2.400;2023-02-28T17:26:37;2.58;;;2.30;;
69417;SDS011;56610;48.872;2.400;2023-02-28T17:29:13;4.45;;;2.47;;
69417;SDS011;56610;48.872;2.400;2023-02-28T17:31:41;3.58;;;2.45;;
69417;SDS011;56610;48.872;2.400;2023-02-28T17:34:07;2.80;;;2.42;;
69417;SDS011;56610;48.872;2.400;2023-02-28T17:36:33;2.60;;;2.38;;
69417;SDS011;56610;48.872;2.400;2023-02-28T17:39:00;3.63;;;2.55;;
69417;SDS011;56610;48.872;2.400;2023-02-28T17:41:26;4.03;;;3.63;;
69417;SDS011;56610;48.872;2.400;2023-02-28T17:43:54;2.80;;;2.60;;
69417;SDS011;56610;48.872;2.400;2023-02-28T17:46:21;2.90;;;2.70;;
69417;SDS011;56610;48.872;2.400;2023-02-28T17:48:49;3.72;;;2.83;;
69417;SDS011;56610;48.872;2.400;2023-02-28T17:51:16;2.70;;;2.38;;
69417;SDS011;56610;48.872;2.400;2023-02-28T17:53:42;3.35;;;2.65;;
69417;SDS011;56610;48.872;2.400;2023-02-28T17:56:18;2.60;;;2.40;;
69417;SDS011;56610;48.872;2.400;2023-02-28T17:58:46;4.78;;;2.83;;